createdAt,value
2018-05-31T00:01:13.329Z,25.44
2018-05-31T00:03:39.304Z,25.51
2018-05-31T00:06:05.280Z,25.51
2018-05-31T00:08:31.240Z,25.44
2018-05-31T00:10:57.217Z,25.59
2018-05-31T00:13:23.190Z,25.51
2018-05-31T00:15:49.157Z,25.45
2018-05-31T00:18:15.115Z,25.44
2018-05-31T00:20:41.119Z,25.47
2018-05-31T00:23:07.105Z,25.46
2018-05-31T00:25:33.056Z,25.43
2018-05-31T00:27:59.012Z,25.41
2018-05-31T00:30:24.973Z,25.51
2018-05-31T00:32:50.953Z,25.47
2018-05-31T00:35:16.928Z,25.50
2018-05-31T00:37:42.931Z,25.51
2018-05-31T00:40:08.896Z,25.51
2018-05-31T00:42:34.913Z,25.42
2018-05-31T00:45:00.838Z,25.46
2018-05-31T00:47:26.818Z,25.45
2018-05-31T00:49:52.950Z,25.50
2018-05-31T00:52:18.936Z,25.47
2018-05-31T00:54:44.925Z,25.55
2018-05-31T00:57:10.879Z,25.62
2018-05-31T00:59:36.876Z,25.59
2018-05-31T01:02:02.880Z,25.53
2018-05-31T01:04:28.860Z,25.58
2018-05-31T01:06:54.849Z,25.59
2018-05-31T01:09:20.839Z,25.60
2018-05-31T01:11:46.810Z,25.49
2018-05-31T01:14:12.793Z,25.51
2018-05-31T01:16:38.769Z,25.58
2018-05-31T01:19:04.728Z,25.56
2018-05-31T01:21:30.706Z,25.56
2018-05-31T01:23:56.679Z,25.47
2018-05-31T01:26:22.646Z,25.37
2018-05-31T01:28:48.612Z,25.37
2018-05-31T01:31:14.606Z,25.49
2018-05-31T01:33:40.586Z,25.56
2018-05-31T01:36:06.591Z,25.53
2018-05-31T01:38:32.542Z,25.56
2018-05-31T01:40:58.537Z,25.54
2018-05-31T01:43:24.512Z,25.58
2018-05-31T01:45:50.600Z,25.53
2018-05-31T01:48:16.582Z,25.50
2018-05-31T01:50:42.562Z,25.54
2018-05-31T01:53:08.541Z,25.62
2018-05-31T01:55:34.507Z,25.57
2018-05-31T01:58:00.511Z,25.47
2018-05-31T02:00:26.505Z,25.57
2018-05-31T02:02:52.493Z,25.55
2018-05-31T02:05:18.455Z,25.47
2018-05-31T02:07:44.458Z,25.45
2018-05-31T02:10:10.425Z,25.34
2018-05-31T02:12:36.409Z,25.36
2018-05-31T02:15:02.442Z,25.53
2018-05-31T02:17:28.413Z,25.53
2018-05-31T02:19:54.374Z,25.55
2018-05-31T02:22:20.349Z,25.54
2018-05-31T02:24:46.320Z,25.56
2018-05-31T02:27:12.318Z,25.58
2018-05-31T02:29:38.284Z,25.56
2018-05-31T02:32:04.253Z,25.55
2018-05-31T02:34:30.253Z,25.53
2018-05-31T02:36:56.218Z,25.54
2018-05-31T02:39:22.167Z,25.61
2018-05-31T02:41:48.140Z,25.58
2018-05-31T02:44:14.111Z,25.57
2018-05-31T02:46:40.109Z,25.51
2018-05-31T02:49:06.032Z,25.52
2018-05-31T02:51:32.004Z,25.41
2018-05-31T02:53:57.956Z,25.36
2018-05-31T02:56:23.937Z,25.41
2018-05-31T02:58:49.921Z,25.53
2018-05-31T03:01:15.873Z,25.53
2018-05-31T03:03:42.168Z,25.50
2018-05-31T03:06:08.136Z,25.54
2018-05-31T03:08:34.132Z,25.54
2018-05-31T03:11:00.084Z,25.56
2018-05-31T03:13:26.073Z,25.60
2018-05-31T03:15:52.048Z,25.55
2018-05-31T03:18:18.026Z,25.52
2018-05-31T03:20:43.998Z,25.49
2018-05-31T03:23:09.984Z,25.56
2018-05-31T03:25:35.964Z,25.55
2018-05-31T03:28:01.944Z,25.52
2018-05-31T03:30:27.927Z,25.45
2018-05-31T03:32:53.915Z,25.45
2018-05-31T03:35:19.890Z,25.42
2018-05-31T03:37:45.858Z,25.37
2018-05-31T03:40:11.847Z,25.38
2018-05-31T03:42:37.833Z,25.49
2018-05-31T03:45:03.811Z,25.51
2018-05-31T03:47:30.443Z,25.49
2018-05-31T03:49:56.388Z,25.50
2018-05-31T03:52:22.374Z,25.51
2018-05-31T03:54:48.349Z,25.54
2018-05-31T03:57:14.344Z,25.59
2018-05-31T03:59:40.324Z,25.58
2018-05-31T04:02:06.301Z,25.53
2018-05-31T04:04:32.289Z,25.53
2018-05-31T04:06:58.256Z,25.52
2018-05-31T04:09:24.221Z,25.51
2018-05-31T04:11:50.232Z,25.47
2018-05-31T04:14:16.255Z,25.52
2018-05-31T04:16:42.219Z,25.47
2018-05-31T04:19:08.170Z,25.40
2018-05-31T04:21:34.208Z,25.32
2018-05-31T04:24:00.160Z,25.35
2018-05-31T04:26:26.123Z,25.51
2018-05-31T04:28:52.075Z,25.55
2018-05-31T04:31:18.068Z,25.50
2018-05-31T04:33:44.099Z,25.52
2018-05-31T04:36:09.997Z,25.51
2018-05-31T04:38:35.964Z,25.52
2018-05-31T04:41:01.963Z,25.54
2018-05-31T04:43:27.944Z,25.49
2018-05-31T04:45:53.915Z,25.51
2018-05-31T04:48:19.929Z,25.55
2018-05-31T04:50:45.880Z,25.51
2018-05-31T04:53:11.878Z,25.53
2018-05-31T04:55:37.851Z,25.56
2018-05-31T04:58:03.820Z,25.44
2018-05-31T05:00:29.806Z,25.49
2018-05-31T05:02:55.806Z,25.41
2018-05-31T05:05:21.748Z,25.36
2018-05-31T05:07:47.715Z,25.35
2018-05-31T05:10:13.700Z,25.41
2018-05-31T05:12:39.693Z,25.47
2018-05-31T05:15:05.647Z,25.50
2018-05-31T05:17:31.636Z,25.50
2018-05-31T05:19:57.598Z,25.50
2018-05-31T05:22:23.589Z,25.52
2018-05-31T05:24:49.539Z,25.51
2018-05-31T05:27:15.490Z,25.50
2018-05-31T05:29:41.469Z,25.49
2018-05-31T05:32:07.459Z,25.51
2018-05-31T05:34:33.449Z,25.48
2018-05-31T05:37:00.495Z,25.49
2018-05-31T05:39:26.537Z,25.44
2018-05-31T05:41:52.548Z,25.38
2018-05-31T05:44:20.559Z,25.39
2018-05-31T05:46:46.524Z,25.36
2018-05-31T05:49:12.601Z,25.32
2018-05-31T05:51:38.628Z,25.31
2018-05-31T05:54:04.630Z,25.30
2018-05-31T05:56:30.677Z,25.30
2018-05-31T05:58:56.641Z,25.35
2018-05-31T06:01:22.605Z,25.40
2018-05-31T06:03:48.662Z,25.42
2018-05-31T06:06:14.658Z,25.42
2018-05-31T06:08:40.710Z,25.44
2018-05-31T06:11:06.699Z,25.38
2018-05-31T06:13:32.661Z,25.35
2018-05-31T06:15:58.639Z,25.44
2018-05-31T06:18:24.650Z,25.29
2018-05-31T06:20:50.612Z,25.31
2018-05-31T06:23:16.591Z,25.32
2018-05-31T06:25:42.562Z,25.32
2018-05-31T06:28:08.545Z,25.33
2018-05-31T06:30:34.498Z,25.37
2018-05-31T06:33:00.559Z,25.31
2018-05-31T06:35:26.568Z,25.30
2018-05-31T06:37:52.509Z,25.32
2018-05-31T06:40:18.480Z,25.33
2018-05-31T06:42:44.461Z,25.37
2018-05-31T06:45:10.449Z,25.42
2018-05-31T06:47:36.393Z,25.39
2018-05-31T06:50:02.365Z,25.39
2018-05-31T06:52:28.309Z,25.37
2018-05-31T06:54:54.275Z,25.35
2018-05-31T06:57:20.248Z,25.41
2018-05-31T06:59:46.222Z,25.39
2018-05-31T07:02:12.208Z,25.37
2018-05-31T07:04:38.151Z,25.39
2018-05-31T07:07:04.120Z,25.38
2018-05-31T07:09:30.086Z,25.37
2018-05-31T07:11:56.056Z,25.29
2018-05-31T07:14:22.027Z,25.31
2018-05-31T07:16:47.942Z,25.29
2018-05-31T07:19:13.888Z,25.28
2018-05-31T07:21:39.924Z,25.38
2018-05-31T07:24:05.857Z,25.58
2018-05-31T07:26:31.833Z,25.53
2018-05-31T07:28:58.866Z,25.45
2018-05-31T07:31:24.851Z,25.45
2018-05-31T07:33:50.898Z,25.50
2018-05-31T07:36:16.923Z,25.59
2018-05-31T07:38:42.901Z,25.45
2018-05-31T07:41:08.869Z,25.42
2018-05-31T07:43:34.818Z,25.39
2018-05-31T07:46:00.815Z,25.42
2018-05-31T07:48:26.773Z,25.37
2018-05-31T07:50:52.781Z,25.36
2018-05-31T07:53:18.765Z,25.37
2018-05-31T07:55:44.770Z,25.37
2018-05-31T07:58:10.744Z,25.35
2018-05-31T08:00:36.682Z,25.40
2018-05-31T08:03:02.760Z,25.37
2018-05-31T08:05:28.720Z,25.35
2018-05-31T08:07:54.697Z,25.37
2018-05-31T08:10:20.777Z,25.39
2018-05-31T08:12:46.740Z,25.39
2018-05-31T08:15:12.699Z,25.41
2018-05-31T08:17:39.259Z,25.43
2018-05-31T08:20:05.235Z,25.43
2018-05-31T08:22:31.341Z,25.41
2018-05-31T08:24:57.339Z,25.47
2018-05-31T08:27:23.304Z,25.59
2018-05-31T08:29:49.330Z,25.46
2018-05-31T08:32:15.241Z,25.43
2018-05-31T08:34:41.205Z,25.40
2018-05-31T08:37:07.159Z,25.50
2018-05-31T08:39:33.118Z,25.44
2018-05-31T08:41:59.071Z,25.40
2018-05-31T08:44:25.098Z,25.49
2018-05-31T08:46:51.021Z,25.43
2018-05-31T08:49:17.021Z,25.42
2018-05-31T08:51:42.996Z,25.38
2018-05-31T08:54:08.974Z,25.45
2018-05-31T08:56:34.952Z,25.37
2018-05-31T08:59:00.927Z,25.42
2018-05-31T09:01:28.158Z,25.45
2018-05-31T09:03:54.163Z,25.46
2018-05-31T09:06:20.143Z,25.39
2018-05-31T09:08:46.127Z,25.42
2018-05-31T09:11:12.111Z,25.42
2018-05-31T09:13:38.084Z,25.42
2018-05-31T09:16:04.053Z,25.38
2018-05-31T09:18:30.029Z,25.38
2018-05-31T09:20:55.993Z,25.39
2018-05-31T09:23:21.980Z,25.38
2018-05-31T09:25:48.931Z,25.39
2018-05-31T09:28:14.908Z,25.42
2018-05-31T09:30:40.909Z,25.40
2018-05-31T09:33:06.904Z,25.42
2018-05-31T09:35:33.917Z,25.39
2018-05-31T09:37:59.876Z,25.34
2018-05-31T09:40:25.834Z,25.34
2018-05-31T09:42:51.786Z,25.32
2018-05-31T09:45:17.817Z,25.33
2018-05-31T09:47:43.842Z,25.31
2018-05-31T09:50:09.804Z,25.36
2018-05-31T09:52:35.760Z,25.37
2018-05-31T09:55:01.835Z,25.36
2018-05-31T09:57:28.893Z,25.37
2018-05-31T09:59:54.865Z,25.34
2018-05-31T10:02:20.843Z,25.40
2018-05-31T10:04:46.835Z,25.46
2018-05-31T10:07:12.805Z,25.39
2018-05-31T10:09:38.785Z,25.43
2018-05-31T10:12:04.748Z,25.41
2018-05-31T10:14:30.742Z,25.43
2018-05-31T10:16:56.689Z,25.43
2018-05-31T10:19:22.670Z,25.42
2018-05-31T10:21:48.652Z,25.45
2018-05-31T10:24:14.621Z,25.43
2018-05-31T10:26:40.582Z,25.43
2018-05-31T10:29:06.542Z,25.45
2018-05-31T10:31:33.602Z,25.50
2018-05-31T10:33:59.576Z,25.49
2018-05-31T10:36:25.553Z,25.61
2018-05-31T10:38:51.601Z,25.59
2018-05-31T10:41:17.595Z,25.60
2018-05-31T10:43:43.555Z,25.49
2018-05-31T10:46:09.523Z,25.47
2018-05-31T10:48:35.506Z,25.46
2018-05-31T10:51:01.491Z,25.44
2018-05-31T10:53:27.452Z,25.43
2018-05-31T10:55:53.461Z,25.50
2018-05-31T10:58:19.428Z,25.49
2018-05-31T11:00:45.441Z,25.49
2018-05-31T11:03:14.758Z,25.54
2018-05-31T11:05:40.727Z,25.53
2018-05-31T11:08:06.736Z,25.55
2018-05-31T11:10:32.699Z,25.55
2018-05-31T11:12:58.705Z,25.51
2018-05-31T11:15:24.707Z,25.57
2018-05-31T11:17:50.774Z,25.57
2018-05-31T11:20:16.762Z,25.49
2018-05-31T11:22:42.772Z,25.50
2018-05-31T11:25:08.843Z,25.52
2018-05-31T11:27:34.821Z,25.51
2018-05-31T11:30:00.811Z,25.49
2018-05-31T11:32:26.774Z,25.53
2018-05-31T11:34:52.817Z,25.53
2018-05-31T11:37:18.776Z,25.54
2018-05-31T11:39:44.738Z,25.50
2018-05-31T11:42:10.758Z,25.52
2018-05-31T11:44:37.783Z,25.61
2018-05-31T11:47:03.761Z,25.54
2018-05-31T11:49:29.833Z,25.53
2018-05-31T11:51:55.796Z,25.54
2018-05-31T11:54:21.795Z,25.53
2018-05-31T11:56:47.770Z,25.56
2018-05-31T11:59:13.744Z,25.75
2018-05-31T12:01:39.783Z,25.80
2018-05-31T12:04:05.765Z,25.85
2018-05-31T12:06:31.764Z,25.74
2018-05-31T12:08:57.788Z,25.73
2018-05-31T12:11:23.784Z,25.54
2018-05-31T12:13:49.760Z,25.78
2018-05-31T12:16:15.744Z,25.78
2018-05-31T12:18:41.710Z,26.08
2018-05-31T12:21:07.731Z,25.89
2018-05-31T12:23:33.726Z,25.85
2018-05-31T12:25:59.691Z,25.88
2018-05-31T12:28:25.786Z,25.54
2018-05-31T12:30:51.744Z,25.44
2018-05-31T12:33:17.737Z,25.41
2018-05-31T12:35:43.769Z,25.44
2018-05-31T12:38:09.931Z,25.40
2018-05-31T12:40:35.938Z,25.46
2018-05-31T12:43:01.939Z,25.45
2018-05-31T12:45:27.940Z,25.41
2018-05-31T12:47:53.908Z,25.47
2018-05-31T12:50:19.921Z,25.48
2018-05-31T12:52:45.877Z,25.47
2018-05-31T12:55:11.879Z,25.48
2018-05-31T12:57:37.834Z,25.57
2018-05-31T13:00:03.824Z,25.53
2018-05-31T13:02:29.764Z,25.48
2018-05-31T13:04:55.738Z,25.51
2018-05-31T13:07:21.711Z,25.57
2018-05-31T13:09:47.709Z,25.48
2018-05-31T13:12:13.689Z,25.53
2018-05-31T13:14:39.664Z,25.51
2018-05-31T13:17:05.656Z,25.46
2018-05-31T13:19:31.677Z,25.50
2018-05-31T13:21:58.908Z,25.53
2018-05-31T13:24:24.914Z,25.59
2018-05-31T13:26:50.938Z,25.53
2018-05-31T13:29:17.020Z,25.49
2018-05-31T13:31:44.071Z,25.49
2018-05-31T13:34:10.069Z,25.43
2018-05-31T13:36:36.049Z,25.46
2018-05-31T13:39:02.043Z,25.49
2018-05-31T13:41:28.010Z,25.53
2018-05-31T13:43:54.001Z,25.53
2018-05-31T13:46:21.070Z,25.55
2018-05-31T13:48:47.048Z,25.59
2018-05-31T13:51:13.015Z,25.70
2018-05-31T13:53:38.962Z,25.56
2018-05-31T13:56:04.919Z,25.53
2018-05-31T13:58:30.873Z,25.59
2018-05-31T14:00:56.936Z,25.54
2018-05-31T14:03:22.899Z,25.56
2018-05-31T14:05:48.920Z,25.56
2018-05-31T14:08:14.980Z,25.58
2018-05-31T14:10:41.038Z,25.55
2018-05-31T14:13:07.013Z,25.52
2018-05-31T14:15:33.353Z,25.54
2018-05-31T14:17:59.379Z,25.56
2018-05-31T14:20:25.372Z,25.54
2018-05-31T14:22:51.392Z,25.56
2018-05-31T14:25:17.437Z,25.55
2018-05-31T14:27:43.425Z,25.54
2018-05-31T14:30:09.409Z,25.56
2018-05-31T14:32:35.393Z,25.63
2018-05-31T14:35:01.380Z,25.62
2018-05-31T14:37:27.369Z,25.58
2018-05-31T14:39:53.367Z,25.63
2018-05-31T14:42:19.360Z,25.59
2018-05-31T14:44:45.328Z,25.63
2018-05-31T14:47:11.302Z,25.60
2018-05-31T14:49:37.312Z,25.64
2018-05-31T14:52:03.305Z,25.65
2018-05-31T14:54:29.294Z,25.61
2018-05-31T14:56:55.305Z,25.50
2018-05-31T14:59:21.274Z,25.47
2018-05-31T15:01:47.265Z,25.58
2018-05-31T15:04:13.302Z,25.47
2018-05-31T15:06:39.353Z,25.50
2018-05-31T15:09:05.367Z,25.53
2018-05-31T15:11:31.345Z,25.53
2018-05-31T15:13:57.314Z,25.60
2018-05-31T15:16:23.301Z,25.52
2018-05-31T15:18:49.266Z,25.55
2018-05-31T15:21:15.233Z,25.60
2018-05-31T15:23:41.222Z,25.54
2018-05-31T15:26:07.177Z,25.51
2018-05-31T15:28:33.177Z,25.50
2018-05-31T15:30:59.135Z,25.47
2018-05-31T15:33:25.148Z,25.52
2018-05-31T15:35:51.130Z,25.56
2018-05-31T15:38:17.111Z,25.65
2018-05-31T15:40:43.074Z,25.65
2018-05-31T15:43:09.049Z,25.59
2018-05-31T15:45:35.035Z,25.60
2018-05-31T15:48:01.050Z,25.57
2018-05-31T15:50:27.929Z,25.58
2018-05-31T15:52:53.908Z,25.60
2018-05-31T15:55:20.009Z,25.59
2018-05-31T15:57:45.988Z,25.65
2018-05-31T16:00:12.016Z,25.63
2018-05-31T16:02:38.031Z,25.61
2018-05-31T16:05:05.021Z,25.58
2018-05-31T16:07:31.003Z,25.61
2018-05-31T16:09:56.981Z,25.60
2018-05-31T16:12:22.967Z,25.61
2018-05-31T16:14:48.921Z,25.59
2018-05-31T16:17:14.982Z,25.66
2018-05-31T16:19:40.953Z,25.68
2018-05-31T16:22:06.937Z,25.64
2018-05-31T16:24:32.884Z,25.62
2018-05-31T16:26:58.844Z,25.67
2018-05-31T16:29:24.830Z,25.76
2018-05-31T16:31:50.792Z,25.59
2018-05-31T16:34:16.766Z,25.56
2018-05-31T16:36:42.731Z,25.57
2018-05-31T16:39:08.702Z,25.63
2018-05-31T16:41:34.671Z,25.61
2018-05-31T16:44:00.632Z,25.66
2018-05-31T16:46:26.600Z,25.65
2018-05-31T16:48:52.558Z,25.65
2018-05-31T16:51:18.525Z,25.67
2018-05-31T16:53:44.483Z,25.66
2018-05-31T16:56:10.469Z,25.63
2018-05-31T16:58:36.433Z,25.64
2018-05-31T17:01:02.455Z,25.71
2018-05-31T17:03:30.471Z,25.72
2018-05-31T17:05:56.465Z,25.65
2018-05-31T17:08:22.444Z,25.62
2018-05-31T17:10:48.438Z,25.61
2018-05-31T17:13:14.400Z,25.59
2018-05-31T17:15:40.409Z,25.60
2018-05-31T17:18:06.396Z,25.61
2018-05-31T17:20:32.363Z,25.63
2018-05-31T17:22:58.378Z,25.69
2018-05-31T17:25:24.386Z,25.68
2018-05-31T17:27:50.385Z,25.64
2018-05-31T17:30:16.370Z,25.61
2018-05-31T17:32:42.343Z,25.65
2018-05-31T17:35:08.311Z,25.71
2018-05-31T17:37:34.315Z,25.62
2018-05-31T17:40:00.276Z,25.64
2018-05-31T17:42:26.251Z,25.72
2018-05-31T17:44:52.261Z,25.70
2018-05-31T17:47:18.260Z,25.65
2018-05-31T17:49:44.239Z,25.62
2018-05-31T17:52:10.317Z,25.59
2018-05-31T17:54:36.284Z,25.58
2018-05-31T17:57:02.250Z,25.57
2018-05-31T17:59:28.221Z,25.55
2018-05-31T18:01:54.212Z,25.62
2018-05-31T18:04:20.197Z,25.57
2018-05-31T18:06:46.193Z,25.58
2018-05-31T18:09:12.181Z,25.68
2018-05-31T18:11:38.229Z,25.63
2018-05-31T18:14:04.267Z,25.56
2018-05-31T18:16:30.239Z,25.62
2018-05-31T18:18:56.226Z,25.60
2018-05-31T18:21:22.178Z,25.68
2018-05-31T18:23:48.180Z,25.70
2018-05-31T18:26:14.155Z,25.70
2018-05-31T18:28:40.111Z,25.73
2018-05-31T18:31:06.082Z,25.70
2018-05-31T18:33:32.053Z,25.61
2018-05-31T18:35:58.046Z,25.63
2018-05-31T18:38:24.007Z,25.59
2018-05-31T18:40:50.031Z,25.60
2018-05-31T18:43:16.031Z,25.61
2018-05-31T18:45:42.045Z,25.62
2018-05-31T18:48:08.024Z,25.62
2018-05-31T18:50:33.999Z,25.63
2018-05-31T18:52:59.969Z,25.70
2018-05-31T18:55:26.065Z,25.83
2018-05-31T18:57:52.036Z,25.95
2018-05-31T19:00:17.997Z,25.84
2018-05-31T19:02:44.043Z,25.75
2018-05-31T19:05:10.023Z,25.80
2018-05-31T19:07:35.987Z,25.79
2018-05-31T19:10:01.953Z,25.70
2018-05-31T19:12:27.933Z,25.64
2018-05-31T19:14:53.897Z,25.67
2018-05-31T19:17:19.878Z,25.63
2018-05-31T19:19:45.847Z,25.56
2018-05-31T19:22:11.827Z,25.58
2018-05-31T19:24:37.805Z,25.60
2018-05-31T19:27:03.784Z,25.61
2018-05-31T19:29:29.840Z,25.61
2018-05-31T19:31:55.831Z,25.67
2018-05-31T19:34:21.792Z,25.67
2018-05-31T19:36:47.763Z,25.70
2018-05-31T19:39:13.714Z,25.69
2018-05-31T19:41:39.704Z,25.71
2018-05-31T19:44:06.716Z,25.73
2018-05-31T19:46:32.709Z,25.74
2018-05-31T19:48:58.671Z,25.74
2018-05-31T19:51:24.642Z,25.62
2018-05-31T19:53:50.593Z,25.68
2018-05-31T19:56:16.579Z,25.64
2018-05-31T19:58:42.572Z,25.62
2018-05-31T20:01:08.567Z,25.62
2018-05-31T20:03:34.531Z,25.64
2018-05-31T20:06:00.533Z,25.60
2018-05-31T20:08:26.616Z,25.63
2018-05-31T20:10:52.577Z,25.59
2018-05-31T20:13:18.574Z,25.64
2018-05-31T20:15:44.538Z,25.76
2018-05-31T20:18:11.564Z,25.66
2018-05-31T20:20:37.581Z,25.74
2018-05-31T20:23:03.686Z,25.69
2018-05-31T20:25:29.665Z,25.62
2018-05-31T20:27:55.634Z,25.71
2018-05-31T20:30:21.643Z,25.82
2018-05-31T20:32:47.605Z,25.85
2018-05-31T20:35:13.565Z,25.71
2018-05-31T20:37:39.585Z,25.71
2018-05-31T20:40:06.640Z,25.72
2018-05-31T20:42:32.660Z,25.61
2018-05-31T20:44:58.708Z,25.60
2018-05-31T20:47:24.670Z,25.59
2018-05-31T20:49:50.651Z,25.63
2018-05-31T20:52:16.615Z,25.60
2018-05-31T20:54:42.701Z,25.62
2018-05-31T20:57:08.672Z,25.63
2018-05-31T20:59:34.610Z,25.72
2018-05-31T21:02:00.573Z,25.64
2018-05-31T21:04:27.220Z,25.64
2018-05-31T21:06:53.201Z,25.66
2018-05-31T21:09:19.141Z,25.60
2018-05-31T21:11:45.117Z,25.84
2018-05-31T21:14:11.121Z,25.72
2018-05-31T21:16:37.080Z,25.59
2018-05-31T21:19:03.072Z,25.67
2018-05-31T21:21:29.049Z,25.63
2018-05-31T21:23:55.003Z,25.66
2018-05-31T21:26:21.007Z,25.54
2018-05-31T21:28:46.962Z,25.51
2018-05-31T21:31:12.961Z,25.61
2018-05-31T21:33:38.904Z,25.55
2018-05-31T21:36:04.882Z,25.56
2018-05-31T21:38:30.841Z,25.50
2018-05-31T21:40:56.801Z,25.72
2018-05-31T21:43:22.765Z,25.64
2018-05-31T21:45:48.823Z,25.49
2018-05-31T21:48:14.823Z,25.41
2018-05-31T21:50:40.773Z,25.44
2018-05-31T21:53:06.752Z,25.39
2018-05-31T21:55:32.716Z,25.43
2018-05-31T21:57:58.697Z,25.44
2018-05-31T22:00:24.772Z,25.40
2018-05-31T22:02:50.783Z,25.39
2018-05-31T22:05:16.988Z,25.41
2018-05-31T22:07:42.964Z,25.43
2018-05-31T22:10:08.938Z,25.42
2018-05-31T22:12:34.917Z,25.35
2018-05-31T22:15:00.921Z,25.33
2018-05-31T22:17:26.899Z,25.32
2018-05-31T22:19:52.885Z,25.33
2018-05-31T22:22:18.843Z,25.32
2018-05-31T22:24:44.833Z,25.33
2018-05-31T22:27:10.801Z,25.40
2018-05-31T22:29:36.782Z,25.32
2018-05-31T22:32:02.765Z,25.29
2018-05-31T22:34:28.778Z,25.27
2018-05-31T22:36:54.753Z,25.27
2018-05-31T22:39:20.708Z,25.29
2018-05-31T22:41:46.713Z,25.35
2018-05-31T22:44:12.675Z,25.32
2018-05-31T22:46:38.680Z,25.31
2018-05-31T22:49:04.654Z,25.31
2018-05-31T22:51:30.625Z,25.28
2018-05-31T22:53:56.577Z,25.34
2018-05-31T22:56:22.923Z,25.36
2018-05-31T22:58:48.912Z,25.44
2018-05-31T23:01:14.891Z,25.53
2018-05-31T23:03:40.880Z,25.55
2018-05-31T23:06:06.863Z,25.62
2018-05-31T23:08:32.852Z,25.68
2018-05-31T23:10:58.816Z,25.68
2018-05-31T23:13:24.811Z,25.79
2018-05-31T23:15:51.154Z,25.61
2018-05-31T23:18:17.107Z,25.55
2018-05-31T23:20:43.067Z,25.61
2018-05-31T23:23:09.025Z,25.60
2018-05-31T23:25:34.984Z,25.63
2018-05-31T23:28:00.954Z,25.64
2018-05-31T23:30:26.964Z,25.65
2018-05-31T23:32:52.925Z,25.65
2018-05-31T23:35:18.888Z,25.67
2018-05-31T23:37:44.889Z,25.62
2018-05-31T23:40:10.852Z,25.63
2018-05-31T23:42:36.827Z,25.64
2018-05-31T23:45:02.793Z,25.65
2018-05-31T23:47:28.771Z,25.61
2018-05-31T23:49:54.727Z,25.62
2018-05-31T23:52:20.712Z,25.66
2018-05-31T23:54:46.667Z,25.65
2018-05-31T23:57:12.668Z,25.64
2018-05-31T23:59:38.616Z,25.67
